createdAt,value
2018-04-28T00:00:44.236Z,12.91
2018-04-28T00:03:11.712Z,13.02
2018-04-28T00:05:39.156Z,13.19
2018-04-28T00:08:06.616Z,13.19
2018-04-28T00:10:34.088Z,12.98
2018-04-28T00:13:01.557Z,13.23
2018-04-28T00:15:29.035Z,13.10
2018-04-28T00:17:56.503Z,12.92
2018-04-28T00:20:24.913Z,12.76
2018-04-28T00:22:54.193Z,12.76
2018-04-28T00:25:21.653Z,12.88
2018-04-28T00:28:00.781Z,12.97
2018-04-28T00:30:31.000Z,12.85
2018-04-28T00:33:01.103Z,12.51
2018-04-28T00:35:31.309Z,12.68
2018-04-28T00:37:59.572Z,12.33
2018-04-28T00:40:32.792Z,12.31
2018-04-28T00:43:00.250Z,12.43
2018-04-28T00:48:33.032Z,12.72
2018-04-28T00:51:15.293Z,12.75
2018-04-28T00:53:42.738Z,12.58
2018-04-28T00:56:10.980Z,12.41
2018-04-28T00:58:40.148Z,12.18
2018-04-28T01:01:13.339Z,12.41
2018-04-28T01:03:57.468Z,12.31
2018-04-28T01:06:24.932Z,12.37
2018-04-28T01:08:52.411Z,12.32
2018-04-28T01:11:22.556Z,12.42
2018-04-28T01:13:50.458Z,12.51
2018-04-28T01:16:19.845Z,12.57
2018-04-28T01:18:50.831Z,12.63
2018-04-28T01:21:19.177Z,12.55
2018-04-28T01:23:46.637Z,12.31
2018-04-28T01:26:28.533Z,12.07
2018-04-28T01:29:05.696Z,12.14
2018-04-28T01:31:33.175Z,11.88
2018-04-28T01:34:14.496Z,11.82
2018-04-28T01:40:00.377Z,11.83
2018-04-28T01:42:39.483Z,11.79
2018-04-28T01:45:24.210Z,11.88
2018-04-28T01:48:03.478Z,12.05
2018-04-28T01:50:33.519Z,11.91
2018-04-28T01:53:01.000Z,11.90
2018-04-28T01:55:38.670Z,11.95
2018-04-28T01:58:15.755Z,11.77
2018-04-28T02:01:03.001Z,11.83
2018-04-28T02:03:48.239Z,11.88
2018-04-28T02:06:24.339Z,11.93
2018-04-28T02:09:08.278Z,11.97
2018-04-28T02:11:39.307Z,12.03
2018-04-28T02:14:14.689Z,11.94
2018-04-28T02:16:42.167Z,11.88
2018-04-28T02:25:44.471Z,11.29
2018-04-28T02:31:39.692Z,11.58
2018-04-28T02:37:10.561Z,11.52
2018-04-28T02:39:40.360Z,11.55
2018-04-28T02:42:16.464Z,11.66
2018-04-28T02:44:44.692Z,11.75
2018-04-28T02:47:19.705Z,11.47
2018-04-28T02:49:49.776Z,11.36
2018-04-28T02:52:19.041Z,11.24
2018-04-28T02:54:49.751Z,11.00
2018-04-28T02:57:33.682Z,11.07
2018-04-28T03:00:06.854Z,11.02
2018-04-28T03:02:38.852Z,10.96
2018-04-28T03:05:09.920Z,10.95
2018-04-28T03:07:38.313Z,11.05
2018-04-28T03:13:00.065Z,11.35
2018-04-28T03:15:27.545Z,11.32
2018-04-28T03:18:02.844Z,11.10
2018-04-28T03:20:41.816Z,11.08
2018-04-28T03:23:26.872Z,10.98
2018-04-28T03:25:57.311Z,10.97
2018-04-28T03:28:30.360Z,10.96
2018-04-28T03:31:06.661Z,11.00
2018-04-28T03:33:44.603Z,10.89
2018-04-28T03:36:19.949Z,10.70
2018-04-28T03:38:52.343Z,10.70
2018-04-28T03:41:25.091Z,10.79
2018-04-28T03:44:01.243Z,10.93
2018-04-28T03:46:37.357Z,11.14
2018-04-28T03:52:16.416Z,11.01
2018-04-28T03:54:44.812Z,11.05
2018-04-28T04:00:26.733Z,10.85
2018-04-28T04:06:06.915Z,10.99
2018-04-28T04:08:39.933Z,10.96
2018-04-28T04:11:15.115Z,10.94
2018-04-28T04:13:58.305Z,10.95
2018-04-28T04:19:31.317Z,11.06
2018-04-28T04:22:10.670Z,11.01
2018-04-28T04:27:36.600Z,11.17
2018-04-28T04:36:23.284Z,11.38
2018-04-28T04:38:50.760Z,11.45
2018-04-28T04:41:24.064Z,11.69
2018-04-28T04:50:23.447Z,11.68
2018-04-28T04:56:09.300Z,11.79
2018-04-28T04:58:47.359Z,11.91
2018-04-28T05:01:26.455Z,11.87
2018-04-28T05:06:59.365Z,12.41
2018-04-28T05:12:39.343Z,12.70
2018-04-28T05:15:18.688Z,12.96
2018-04-28T05:18:10.653Z,13.06
2018-04-28T05:20:48.608Z,13.03
2018-04-28T05:23:39.627Z,13.10
2018-04-28T05:29:52.304Z,13.15
2018-04-28T05:32:35.469Z,13.46
2018-04-28T05:35:09.664Z,13.55
2018-04-28T05:37:47.747Z,13.48
2018-04-28T05:40:18.451Z,13.67
2018-04-28T05:42:56.480Z,13.66
2018-04-28T05:45:35.599Z,13.70
2018-04-28T05:48:20.063Z,13.81
2018-04-28T05:54:10.525Z,14.06
2018-04-28T05:56:49.767Z,14.03
2018-04-28T05:59:23.131Z,14.16
2018-04-28T06:01:56.307Z,14.35
2018-04-28T06:04:45.324Z,14.35
2018-04-28T06:10:26.169Z,14.84
2018-04-28T06:13:06.525Z,14.83
2018-04-28T06:18:42.131Z,15.10
2018-04-28T06:21:09.612Z,15.21
2018-04-28T06:23:37.076Z,15.70
2018-04-28T06:26:04.666Z,15.56
2018-04-28T06:28:32.057Z,15.35
2018-04-28T06:30:59.518Z,15.54
2018-04-28T06:33:27.000Z,15.65
2018-04-28T06:35:54.503Z,15.74
2018-04-28T06:38:21.993Z,15.74
2018-04-28T06:40:49.459Z,15.84
2018-04-28T06:43:16.983Z,15.97
2018-04-28T06:45:44.430Z,15.88
2018-04-28T06:48:11.900Z,15.91
2018-04-28T06:50:39.376Z,16.19
2018-04-28T06:53:07.673Z,16.38
2018-04-28T06:55:35.161Z,16.38
2018-04-28T06:58:02.624Z,16.65
2018-04-28T07:00:30.083Z,16.62
2018-04-28T07:02:57.570Z,16.49
2018-04-28T07:05:25.039Z,16.47
2018-04-28T07:07:52.531Z,16.63
2018-04-28T07:10:19.996Z,16.79
2018-04-28T07:12:47.464Z,16.84
2018-04-28T07:15:14.948Z,16.79
2018-04-28T07:17:42.415Z,16.70
2018-04-28T07:20:10.688Z,16.90
2018-04-28T07:22:38.148Z,17.02
2018-04-28T07:25:05.637Z,17.07
2018-04-28T07:27:33.116Z,16.97
2018-04-28T07:30:00.590Z,17.24
2018-04-28T07:32:28.103Z,17.17
2018-04-28T07:34:55.578Z,17.51
2018-04-28T07:37:23.049Z,17.88
2018-04-28T07:39:50.544Z,17.93
2018-04-28T07:42:18.090Z,18.12
2018-04-28T07:44:45.500Z,18.22
2018-04-28T07:47:12.960Z,17.86
2018-04-28T07:49:40.418Z,18.12
2018-04-28T07:52:07.901Z,18.40
2018-04-28T07:54:35.379Z,18.72
2018-04-28T07:57:03.128Z,18.79
2018-04-28T07:59:30.599Z,18.66
2018-04-28T08:01:58.060Z,18.70
2018-04-28T08:04:25.529Z,19.02
2018-04-28T08:06:52.992Z,18.89
2018-04-28T08:09:20.488Z,18.98
2018-04-28T08:11:47.955Z,19.47
2018-04-28T08:14:15.428Z,19.35
2018-04-28T08:16:42.904Z,19.53
2018-04-28T08:19:10.378Z,19.21
2018-04-28T08:21:37.876Z,19.35
2018-04-28T08:24:05.350Z,19.69
2018-04-28T08:26:32.886Z,19.71
2018-04-28T08:29:00.296Z,19.63
2018-04-28T08:31:27.773Z,19.57
2018-04-28T08:33:55.280Z,19.66
2018-04-28T08:36:22.747Z,19.76
2018-04-28T08:38:50.207Z,19.91
2018-04-28T08:41:17.680Z,20.04
2018-04-28T08:43:45.155Z,20.08
2018-04-28T08:46:12.631Z,19.81
2018-04-28T08:48:40.088Z,20.09
2018-04-28T08:51:07.575Z,20.28
2018-04-28T08:53:35.665Z,20.13
2018-04-28T08:56:03.125Z,20.37
2018-04-28T08:58:30.615Z,20.58
2018-04-28T09:01:02.950Z,20.94
2018-04-28T09:03:30.447Z,21.01
2018-04-28T09:05:57.899Z,21.14
2018-04-28T09:08:25.355Z,20.98
2018-04-28T09:10:52.838Z,21.02
2018-04-28T09:13:20.297Z,21.57
2018-04-28T09:15:47.793Z,21.47
2018-04-28T09:18:15.267Z,21.33
2018-04-28T09:20:42.744Z,21.71
2018-04-28T09:23:10.234Z,22.46
2018-04-28T09:25:37.710Z,22.15
2018-04-28T09:28:05.231Z,21.61
2018-04-28T09:30:32.698Z,22.06
2018-04-28T09:33:00.211Z,22.24
2018-04-28T09:35:27.834Z,22.64
2018-04-28T09:37:55.308Z,23.07
2018-04-28T09:40:22.813Z,22.90
2018-04-28T09:42:50.396Z,23.95
2018-04-28T09:45:17.859Z,23.55
2018-04-28T09:47:45.357Z,23.83
2018-04-28T09:50:12.881Z,23.92
2018-04-28T09:52:40.352Z,23.77
2018-04-28T09:55:07.842Z,23.97
2018-04-28T09:57:35.302Z,23.46
2018-04-28T10:00:14.453Z,23.64
2018-04-28T10:02:41.936Z,24.16
2018-04-28T10:05:09.419Z,23.77
2018-04-28T10:07:36.891Z,23.95
2018-04-28T10:10:04.701Z,24.13
2018-04-28T10:12:32.170Z,24.09
2018-04-28T10:14:59.633Z,23.96
2018-04-28T10:17:27.118Z,25.11
2018-04-28T10:19:54.567Z,25.35
2018-04-28T10:22:22.043Z,25.49
2018-04-28T10:24:49.508Z,24.68
2018-04-28T10:27:16.995Z,25.66
2018-04-28T10:29:44.460Z,25.18
2018-04-28T10:32:11.919Z,25.38
2018-04-28T10:34:39.408Z,26.10
2018-04-28T10:37:06.877Z,26.18
2018-04-28T10:39:34.372Z,26.16
2018-04-28T10:42:01.860Z,25.94
2018-04-28T10:44:29.320Z,26.17
2018-04-28T10:46:56.795Z,26.65
2018-04-28T10:49:24.255Z,26.02
2018-04-28T10:51:51.728Z,27.06
2018-04-28T10:54:19.193Z,27.30
2018-04-28T10:56:46.821Z,27.23
2018-04-28T10:59:14.283Z,26.54
2018-04-28T11:01:41.744Z,26.99
2018-04-28T11:04:09.224Z,26.89
2018-04-28T11:06:36.679Z,26.94
2018-04-28T11:09:04.143Z,27.03
2018-04-28T11:11:31.632Z,27.73
2018-04-28T11:13:59.091Z,27.11
2018-04-28T11:16:27.036Z,26.62
2018-04-28T11:18:54.507Z,27.33
2018-04-28T11:21:21.963Z,27.21
2018-04-28T11:23:49.475Z,27.26
2018-04-28T11:26:16.940Z,28.37
2018-04-28T11:28:44.521Z,27.96
2018-04-28T11:31:11.984Z,27.61
2018-04-28T11:33:39.448Z,27.77
2018-04-28T11:36:06.921Z,29.74
2018-04-28T11:38:34.385Z,29.48
2018-04-28T11:41:01.983Z,28.79
2018-04-28T11:43:29.439Z,28.92
2018-04-28T11:45:56.892Z,28.82
2018-04-28T11:48:24.359Z,30.68
2018-04-28T11:50:51.815Z,30.17
2018-04-28T11:53:19.341Z,28.51
2018-04-28T11:55:46.782Z,30.06
2018-04-28T11:58:14.236Z,30.41
2018-04-28T12:00:41.714Z,29.02
2018-04-28T12:03:09.178Z,30.77
2018-04-28T12:05:36.656Z,31.12
2018-04-28T12:08:04.118Z,30.65
2018-04-28T12:10:31.618Z,30.70
2018-04-28T12:12:59.096Z,30.05
2018-04-28T12:15:26.582Z,30.28
2018-04-28T12:17:54.099Z,31.87
2018-04-28T12:20:21.558Z,30.63
2018-04-28T12:22:50.039Z,30.51
2018-04-28T12:25:17.512Z,31.47
2018-04-28T12:27:44.972Z,31.60
2018-04-28T12:30:12.453Z,30.37
2018-04-28T12:32:39.907Z,30.73
2018-04-28T12:35:07.351Z,30.60
2018-04-28T12:37:34.833Z,30.50
2018-04-28T12:40:02.295Z,32.30
2018-04-28T12:42:29.769Z,29.81
2018-04-28T12:44:57.229Z,30.56
2018-04-28T12:47:24.950Z,30.14
2018-04-28T12:49:52.421Z,30.47
2018-04-28T12:52:19.874Z,32.29
2018-04-28T12:54:47.339Z,32.79
2018-04-28T12:57:14.795Z,32.73
2018-04-28T12:59:42.252Z,33.98
2018-04-28T13:02:09.733Z,33.29
2018-04-28T13:04:37.177Z,34.11
2018-04-28T13:07:04.652Z,32.87
2018-04-28T13:09:32.109Z,32.98
2018-04-28T13:11:59.574Z,34.93
2018-04-28T13:14:27.039Z,34.92
2018-04-28T13:16:55.125Z,34.41
2018-04-28T13:19:22.601Z,36.10
2018-04-28T13:21:50.056Z,33.85
2018-04-28T13:24:17.509Z,33.40
2018-04-28T13:26:44.999Z,32.37
2018-04-28T13:29:12.543Z,32.28
2018-04-28T13:31:39.956Z,32.46
2018-04-28T13:34:07.408Z,32.59
2018-04-28T13:36:34.867Z,33.53
2018-04-28T13:39:02.341Z,32.68
2018-04-28T13:41:29.798Z,32.95
2018-04-28T13:43:57.272Z,32.59
2018-04-28T13:46:24.725Z,31.81
2018-04-28T13:48:52.195Z,33.61
2018-04-28T13:51:19.655Z,31.30
2018-04-28T13:53:47.114Z,31.31
2018-04-28T13:56:14.588Z,33.17
2018-04-28T13:58:42.051Z,32.83
2018-04-28T14:01:09.732Z,33.66
2018-04-28T14:03:37.199Z,33.03
2018-04-28T14:06:04.662Z,33.41
2018-04-28T14:08:32.131Z,33.58
2018-04-28T14:10:59.582Z,33.19
2018-04-28T14:13:27.077Z,33.06
2018-04-28T14:15:54.540Z,33.06
2018-04-28T14:18:22.009Z,32.43
2018-04-28T14:20:49.486Z,32.53
2018-04-28T14:23:16.936Z,32.36
2018-04-28T14:25:44.411Z,31.64
2018-04-28T14:28:11.873Z,32.41
2018-04-28T14:30:39.326Z,33.10
2018-04-28T14:33:06.794Z,32.00
2018-04-28T14:35:34.255Z,31.29
2018-04-28T14:38:01.736Z,31.94
2018-04-28T14:40:29.200Z,31.86
2018-04-28T14:42:56.657Z,31.97
2018-04-28T14:45:24.143Z,32.51
2018-04-28T14:47:51.612Z,31.90
2018-04-28T14:50:19.097Z,32.11
2018-04-28T14:52:46.584Z,32.71
2018-04-28T14:55:14.094Z,31.63
2018-04-28T14:57:41.547Z,32.96
2018-04-28T15:00:09.049Z,33.48
2018-04-28T15:02:36.711Z,33.61
2018-04-28T15:05:04.176Z,34.32
2018-04-28T15:07:31.661Z,35.29
2018-04-28T15:09:59.123Z,33.62
2018-04-28T15:12:26.628Z,31.81
2018-04-28T15:14:54.100Z,32.73
2018-04-28T15:17:21.876Z,33.22
2018-04-28T15:19:49.353Z,33.33
2018-04-28T15:22:16.817Z,34.50
2018-04-28T15:24:44.270Z,35.03
2018-04-28T15:27:11.747Z,32.72
2018-04-28T15:29:39.204Z,33.07
2018-04-28T15:32:06.681Z,34.48
2018-04-28T15:34:34.148Z,32.17
2018-04-28T15:37:01.601Z,33.01
2018-04-28T15:39:29.069Z,33.74
2018-04-28T15:41:56.532Z,33.42
2018-04-28T15:44:24.018Z,33.63
2018-04-28T15:46:51.484Z,32.76
2018-04-28T15:49:18.939Z,33.53
2018-04-28T15:51:46.416Z,33.04
2018-04-28T15:54:13.871Z,34.00
2018-04-28T15:56:41.333Z,32.94
2018-04-28T15:59:08.824Z,32.95
2018-04-28T16:01:36.284Z,33.38
2018-04-28T16:04:03.771Z,33.49
2018-04-28T16:06:31.265Z,33.33
2018-04-28T16:08:58.740Z,34.03
2018-04-28T16:11:26.283Z,33.14
2018-04-28T16:13:53.750Z,33.10
2018-04-28T16:16:21.224Z,32.67
2018-04-28T16:18:48.695Z,33.27
2018-04-28T16:21:16.145Z,32.49
2018-04-28T16:23:43.627Z,31.81
2018-04-28T16:26:11.086Z,32.48
2018-04-28T16:28:41.832Z,31.96
2018-04-28T16:31:09.308Z,32.19
2018-04-28T16:33:36.776Z,31.95
2018-04-28T16:36:04.252Z,31.98
2018-04-28T16:38:31.708Z,32.63
2018-04-28T16:40:59.191Z,31.84
2018-04-28T16:43:26.652Z,32.36
2018-04-28T16:45:54.140Z,32.54
2018-04-28T16:48:21.597Z,31.54
2018-04-28T16:50:49.076Z,32.70
2018-04-28T16:53:16.574Z,31.12
2018-04-28T16:55:44.026Z,32.24
2018-04-28T16:58:11.481Z,31.07
2018-04-28T17:00:38.961Z,30.77
2018-04-28T17:03:06.421Z,32.73
2018-04-28T17:05:33.899Z,30.97
2018-04-28T17:08:01.351Z,31.72
2018-04-28T17:10:28.816Z,30.32
2018-04-28T17:12:56.299Z,31.85
2018-04-28T17:15:23.755Z,30.45
2018-04-28T17:17:54.367Z,30.69
2018-04-28T17:20:21.825Z,30.17
2018-04-28T17:22:49.280Z,30.46
2018-04-28T17:25:16.763Z,29.78
2018-04-28T17:27:44.210Z,29.67
2018-04-28T17:30:11.655Z,30.52
2018-04-28T17:32:39.145Z,29.70
2018-04-28T17:35:06.605Z,28.89
2018-04-28T17:37:34.080Z,28.49
2018-04-28T17:40:01.535Z,28.06
2018-04-28T17:42:28.998Z,27.79
2018-04-28T17:44:56.469Z,27.57
2018-04-28T17:47:23.924Z,27.35
2018-04-28T17:49:51.401Z,27.35
2018-04-28T17:52:18.864Z,26.70
2018-04-28T17:54:46.334Z,26.63
2018-04-28T17:57:13.955Z,26.02
2018-04-28T17:59:41.411Z,25.71
2018-04-28T18:02:08.898Z,25.82
2018-04-28T18:04:36.360Z,25.27
2018-04-28T18:07:03.831Z,24.89
2018-04-28T18:09:31.311Z,24.42
2018-04-28T18:11:58.797Z,24.35
2018-04-28T18:14:26.279Z,24.09
2018-04-28T18:16:53.748Z,24.09
2018-04-28T18:19:21.204Z,24.03
2018-04-28T18:21:48.693Z,23.77
2018-04-28T18:24:16.150Z,23.77
2018-04-28T18:26:43.624Z,23.73
2018-04-28T18:29:11.089Z,23.63
2018-04-28T18:31:38.575Z,23.36
2018-04-28T18:34:06.032Z,23.45
2018-04-28T18:36:33.486Z,23.43
2018-04-28T18:39:00.965Z,23.19
2018-04-28T18:41:28.415Z,23.10
2018-04-28T18:43:55.919Z,22.96
2018-04-28T18:46:23.438Z,22.98
2018-04-28T18:48:50.867Z,22.91
2018-04-28T18:51:18.352Z,22.93
2018-04-28T18:53:45.813Z,22.93
2018-04-28T18:56:13.424Z,22.85
2018-04-28T18:58:40.889Z,22.17
2018-04-28T19:01:08.344Z,22.13
2018-04-28T19:03:35.816Z,22.13
2018-04-28T19:06:03.298Z,22.13
2018-04-28T19:08:30.821Z,22.01
2018-04-28T19:10:58.311Z,21.91
2018-04-28T19:13:25.964Z,21.92
2018-04-28T19:15:53.446Z,21.82
2018-04-28T19:18:20.911Z,21.77
2018-04-28T19:20:48.388Z,21.73
2018-04-28T19:23:15.864Z,21.73
2018-04-28T19:25:43.339Z,21.72
2018-04-28T19:28:10.819Z,21.67
2018-04-28T19:30:38.282Z,21.54
2018-04-28T19:33:05.951Z,21.34
2018-04-28T19:35:33.408Z,21.24
2018-04-28T19:38:00.871Z,21.26
2018-04-28T19:40:28.373Z,21.17
2018-04-28T19:42:55.916Z,21.00
2018-04-28T19:45:23.329Z,20.93
2018-04-28T19:47:50.822Z,20.98
2018-04-28T19:50:18.290Z,20.95
2018-04-28T19:52:45.763Z,20.89
2018-04-28T19:55:13.223Z,20.82
2018-04-28T19:57:40.700Z,20.82
2018-04-28T20:00:08.227Z,20.80
2018-04-28T20:02:36.073Z,20.71
2018-04-28T20:05:03.519Z,20.75
2018-04-28T20:07:30.981Z,20.66
2018-04-28T20:09:58.522Z,20.58
2018-04-28T20:12:25.944Z,20.57
2018-04-28T20:14:53.694Z,20.54
2018-04-28T20:17:21.159Z,20.46
2018-04-28T20:19:48.625Z,20.44
2018-04-28T20:22:27.907Z,20.47
2018-04-28T20:25:07.048Z,20.44
2018-04-28T20:27:34.538Z,20.37
2018-04-28T20:30:02.014Z,20.34
2018-04-28T20:32:29.478Z,20.32
2018-04-28T20:34:56.953Z,20.25
2018-04-28T20:37:24.417Z,20.21
2018-04-28T20:39:51.901Z,20.12
2018-04-28T20:42:19.363Z,20.03
2018-04-28T20:44:46.851Z,19.96
2018-04-28T20:47:14.314Z,19.85
2018-04-28T20:49:41.778Z,19.84
2018-04-28T20:52:09.263Z,19.76
2018-04-28T20:54:36.731Z,19.71
2018-04-28T20:57:04.227Z,19.71
2018-04-28T20:59:31.685Z,19.56
2018-04-28T21:01:59.180Z,19.52
2018-04-28T21:04:26.631Z,19.51
2018-04-28T21:06:54.301Z,19.44
2018-04-28T21:09:21.793Z,19.36
2018-04-28T21:11:49.256Z,19.32
2018-04-28T21:14:16.770Z,19.43
2018-04-28T21:16:44.244Z,19.25
2018-04-28T21:19:11.715Z,19.30
2018-04-28T21:21:39.216Z,19.20
2018-04-28T21:24:06.688Z,19.28
2018-04-28T21:26:34.324Z,19.21
2018-04-28T21:29:01.786Z,19.28
2018-04-28T21:31:29.243Z,19.26
2018-04-28T21:33:56.727Z,19.21
2018-04-28T21:36:24.187Z,19.32
2018-04-28T21:38:51.660Z,19.21
2018-04-28T21:41:19.124Z,19.19
2018-04-28T21:43:46.599Z,19.14
2018-04-28T21:46:14.060Z,19.02
2018-04-28T21:48:41.531Z,19.01
2018-04-28T21:51:09.007Z,19.03
2018-04-28T21:53:36.518Z,18.95
2018-04-28T21:56:04.572Z,19.01
2018-04-28T21:58:32.039Z,18.90
2018-04-28T22:00:59.515Z,18.90
2018-04-28T22:03:26.974Z,18.95
2018-04-28T22:05:54.468Z,18.90
2018-04-28T22:08:21.922Z,18.82
2018-04-28T22:10:49.384Z,18.77
2018-04-28T22:13:16.859Z,18.71
2018-04-28T22:15:44.309Z,18.76
2018-04-28T22:18:11.814Z,18.82
2018-04-28T22:20:39.272Z,18.69
2018-04-28T22:23:06.728Z,18.64
2018-04-28T22:25:34.201Z,18.53
2018-04-28T22:28:01.668Z,18.68
2018-04-28T22:30:29.156Z,18.64
2018-04-28T22:32:56.621Z,18.62
2018-04-28T22:35:24.081Z,18.57
2018-04-28T22:37:51.555Z,18.67
2018-04-28T22:40:19.031Z,18.50
2018-04-28T22:42:46.517Z,18.58
2018-04-28T22:45:13.976Z,18.58
2018-04-28T22:47:41.451Z,18.54
2018-04-28T22:50:08.908Z,18.42
2018-04-28T22:52:36.370Z,18.47
2018-04-28T22:55:03.861Z,18.44
2018-04-28T22:57:31.326Z,18.39
2018-04-28T22:59:58.819Z,18.40
2018-04-28T23:02:26.295Z,18.49
2018-04-28T23:04:53.766Z,18.58
2018-04-28T23:07:21.245Z,18.52
2018-04-28T23:09:48.753Z,18.33
2018-04-28T23:12:16.231Z,18.45
2018-04-28T23:14:43.696Z,18.32
2018-04-28T23:17:11.177Z,18.22
2018-04-28T23:19:38.647Z,18.11
2018-04-28T23:22:06.135Z,18.16
2018-04-28T23:24:33.593Z,18.15
2018-04-28T23:27:01.056Z,18.16
2018-04-28T23:29:28.539Z,18.13
2018-04-28T23:31:55.996Z,18.16
2018-04-28T23:34:23.474Z,17.94
2018-04-28T23:36:50.942Z,17.78
2018-04-28T23:39:18.425Z,17.81
2018-04-28T23:41:45.885Z,17.86
2018-04-28T23:44:13.347Z,17.88
2018-04-28T23:46:40.833Z,17.87
2018-04-28T23:49:08.293Z,17.77
2018-04-28T23:51:35.779Z,17.81
2018-04-28T23:54:03.253Z,17.74
2018-04-28T23:56:30.752Z,17.78
2018-04-28T23:58:58.201Z,17.75
